Flight Track Log - Related Links

Times and Time Zones

All times are in EST time to prevent confusion due to time zone crossing. See the SWA868 flight status page for this flight to view local times or setup timezone preferences in your user account.


Time Position Orientation Groundspeed Altitude Reporting Facility
EST Latitude Longitude Course Direction KTS MPH feet Rate Location/Type
Sat 03:51:09 PM 36.0775 -115.1650 269° West 129 148 3,200  Level Los Angeles Center
Sat 03:51:56 PM 36.0769 -115.2089 269° West 166 191 4,500 1,625 Climbing Los Angeles Center
Sat 03:51:57 PM 36.0772 -115.2131 275° West 191 220 4,500 2,951 Level Los Angeles Center
Sat 03:52:57 PM 36.0900 -115.2794 283° West 218 251 7,500 3,246 Climbing Los Angeles Center
Sat 03:52:58 PM 36.0928 -115.2850 302° West 230 265 7,800 3,484 Climbing Los Angeles Center
Sat 03:53:59 PM 36.1611 -115.2786 North 278 320 11,100 2,927 Climbing Los Angeles Center
Sat 03:55:01 PM 36.1939 -115.1792 68° East 319 367 13,800 2,683 Climbing Los Angeles Center
Sat 03:56:02 PM 36.1958 -115.0544 89° East 363 418 16,600 2,195 Climbing Los Angeles Center
Sat 03:57:04 PM 36.1975 -114.9272 89° East 409 471 18,300 2,081 Climbing Los Angeles Center
Sat 03:58:06 PM 36.2319 -114.7547 76° East 431 496 20,900 2,419 Climbing Los Angeles Center
Sat 03:59:08 PM 36.3222 -114.6653 39° Northeast 419 482 23,300 2,390 Climbing Los Angeles Center
Sat 04:00:09 PM 36.4167 -114.5747 38° Northeast 425 489 25,800 2,195 Climbing Los Angeles Center
Sat 04:01:11 PM 36.5128 -114.4828 38° Northeast 433 498 27,800 1,742 Climbing Los Angeles Center
Sat 04:02:13 PM 36.6208 -114.4239 24° Northeast 425 489 29,400 1,500 Climbing Los Angeles Center
Sat 04:03:15 PM 36.7294 -114.4494 349° North 401 461 30,900 1,463 Climbing Los Angeles Center
Sat 04:04:16 PM 36.8431 -114.4744 350° North 406 467 32,400 1,707 Climbing Los Angeles Center
Sat 04:05:18 PM 36.9806 -114.5081 349° North 415 478 34,400 1,984 Climbing Los Angeles Center
Sat 04:06:20 PM 37.0931 -114.5347 349° North 415 478 36,500 1,403 Climbing Los Angeles Center
Sat 04:07:22 PM 37.1889 -114.5575 349° North 405 466 37,300 732 Climbing Los Angeles Center
Sat 04:08:23 PM 37.3228 -114.5869 350° North 405 466 38,000 341 Climbing Los Angeles Center
Sat 04:09:25 PM 37.4386 -114.6153 349° North 416 479 38,000  Level Los Angeles Center
Sat 04:10:27 PM 37.5533 -114.6428 349° North 419 482 38,000  Level Los Angeles Center
Sat 04:11:28 PM 37.6683 -114.6700 349° North 420 483 38,000  Level Los Angeles Center
Sat 04:12:30 PM 37.7847 -114.6969 350° North 422 486 38,000  Level Los Angeles Center
Sat 04:13:22 PM 37.8764 -114.7189 349° North 421 484 38,000  Level Salt Lake Center
Sat 04:14:23 PM 38.0119 -114.7514 349° North 416 479 38,000  Level Salt Lake Center
Sat 04:15:25 PM 38.1228 -114.7789 349° North 410 472 38,000  Level Salt Lake Center
Sat 04:16:26 PM 38.2333 -114.8047 350° North 406 467 38,000  Level Salt Lake Center
Sat 04:17:27 PM 38.3447 -114.8319 349° North 406 467 38,000  Level Salt Lake Center
Sat 04:18:28 PM 38.4553 -114.8589 349° North 405 466 38,000  Level Salt Lake Center
Sat 04:19:30 PM 38.5661 -114.8861 349° North 406 467 38,000  Level Salt Lake Center
Sat 04:20:31 PM 38.6800 -114.9111 350° North 412 474 38,000  Level Salt Lake Center
Sat 04:21:32 PM 38.7936 -114.9367 350° North 415 478 38,000  Level Salt Lake Center
Sat 04:22:33 PM 38.9028 -114.9639 349° North 407 468 38,000  Level Salt Lake Center
Sat 04:23:35 PM 39.0103 -114.9942 348° North 400 460 38,000  Level Salt Lake Center
Sat 04:24:36 PM 39.1439 -115.0258 350° North 406 467 38,000  Level Salt Lake Center
Sat 04:25:37 PM 39.2392 -115.0531 348° North 405 466 38,000  Level Salt Lake Center
Sat 04:26:38 PM 39.3675 -115.0811 350° North 415 478 38,000  Level Salt Lake Center
Sat 04:27:39 PM 39.4772 -115.1072 350° North 417 480 38,000  Level Salt Lake Center
Sat 04:28:41 PM 39.6042 -115.1383 349° North 417 480 38,000  Level Salt Lake Center
Sat 04:29:42 PM 39.7100 -115.1656 349° North 410 472 38,000  Level Salt Lake Center
Sat 04:30:43 PM 39.8175 -115.1919 349° North 409 471 38,000  Level Salt Lake Center
Sat 04:31:44 PM 39.9406 -115.2242 349° North 407 468 38,000  Level Salt Lake Center
Sat 04:32:45 PM 40.0467 -115.2517 349° North 407 468 38,000  Level Salt Lake Center
Sat 04:33:47 PM 40.1733 -115.2831 349° North 411 473 38,000  Level Salt Lake Center
Sat 04:34:48 PM 40.2792 -115.3111 349° North 409 471 38,000  Level Salt Lake Center
Sat 04:35:49 PM 40.3894 -115.3397 349° North 416 479 38,000  Level Salt Lake Center
Sat 04:36:50 PM 40.5194 -115.3714 350° North 423 487 38,000  Level Salt Lake Center
Sat 04:37:51 PM 40.6314 -115.4011 349° North 426 490 38,000  Level Salt Lake Center
Sat 04:38:53 PM 40.7425 -115.4308 349° North 427 491 38,000  Level Salt Lake Center
Sat 04:39:54 PM 40.8725 -115.4639 349° North 426 490 38,000  Level Salt Lake Center
Sat 04:40:55 PM 40.9839 -115.4933 349° North 426 490 38,000  Level Salt Lake Center
Sat 04:41:56 PM 41.1128 -115.5256 349° North 425 489 38,000  Level Salt Lake Center
Sat 04:42:57 PM 41.2253 -115.5556 349° North 427 491 38,000  Level Salt Lake Center
Sat 04:43:59 PM 41.3375 -115.5856 349° North 430 495 38,000  Level Salt Lake Center
Sat 04:45:00 PM 41.4681 -115.6203 349° North 430 495 38,000  Level Salt Lake Center
Sat 04:46:01 PM 41.5822 -115.6497 349° North 434 499 38,000  Level Salt Lake Center
Sat 04:47:02 PM 41.7139 -115.6847 349° North 432 497 38,000  Level Salt Lake Center
Sat 04:48:03 PM 41.8264 -115.7164 348° North 432 497 38,000  Level Salt Lake Center
Sat 04:49:05 PM 41.9397 -115.7478 348° North 433 498 38,000  Level Salt Lake Center
Sat 04:50:06 PM 42.0703 -115.7825 349° North 428 493 38,000  Level Salt Lake Center
Sat 04:51:07 PM 42.1733 -115.8097 349° North 429 494 38,000  Level Salt Lake Center
Sat 04:52:08 PM 42.2886 -115.8406 349° North 422 486 38,000  Level Salt Lake Center
Sat 04:53:10 PM 42.4261 -115.8778 349° North 420 483 38,000  Level Salt Lake Center
Sat 04:54:11 PM 42.5397 -115.9097 348° North 418 481 38,000  Level Salt Lake Center
Sat 04:55:12 PM 42.6533 -115.9408 349° North 417 480 38,000  Level Salt Lake Center
Sat 04:56:13 PM 42.7667 -115.9717 349° North 417 480 38,000  Level Salt Lake Center
Sat 04:57:15 PM 42.8800 -116.0031 349° North 416 479 38,000  Level Salt Lake Center
Sat 04:58:16 PM 42.9944 -116.0319 350° North 417 480 38,000  Level Salt Lake Center
Sat 04:59:17 PM 43.1061 -116.0636 348° North 409 471 38,000  Level Salt Lake Center
Sat 05:00:18 PM 43.2211 -116.0972 348° North 421 484 38,000  Level Salt Lake Center
Sat 05:01:20 PM 43.3361 -116.1314 348° North 422 486 38,000  Level Salt Lake Center
Sat 05:02:21 PM 43.4514 -116.1644 348° North 423 487 38,000  Level Salt Lake Center
Sat 05:03:22 PM 43.5886 -116.2033 348° North 421 484 38,000  Level Salt Lake Center
Sat 05:04:24 PM 43.7017 -116.2431 346° North 419 482 38,000  Level Salt Lake Center
Sat 05:05:25 PM 43.8150 -116.2814 346° North 420 483 38,000  Level Salt Lake Center
Sat 05:06:26 PM 43.9289 -116.3192 347° North 420 483 38,000  Level Salt Lake Center
Sat 05:07:27 PM 44.0431 -116.3569 347° North 422 486 38,000  Level Salt Lake Center
Sat 05:08:29 PM 44.1569 -116.3953 346° North 418 481 38,000  Level Salt Lake Center
Sat 05:09:30 PM 44.2731 -116.4322 347° North 423 487 38,000  Level Salt Lake Center
Sat 05:10:31 PM 44.3869 -116.4731 346° North 420 483 38,000  Level Salt Lake Center
Sat 05:11:33 PM 44.5019 -116.5136 346° North 420 483 38,000  Level Salt Lake Center
Sat 05:12:34 PM 44.6169 -116.5528 346° North 421 484 38,000  Level Salt Lake Center
Sat 05:13:35 PM 44.7311 -116.5917 346° North 420 483 38,000  Level Salt Lake Center
Sat 05:14:37 PM 44.8447 -116.6319 346° North 420 483 38,000  Level Salt Lake Center
Sat 05:15:38 PM 44.9817 -116.6789 346° North 419 482 38,000  Level Salt Lake Center
Sat 05:16:39 PM 45.0939 -116.7200 346° North 417 480 38,000  Level Salt Lake Center
Sat 05:17:15 PM 45.1614 -116.7428 347° North 415 478 38,000  Level Seattle Center
Sat 05:18:16 PM 45.2742 -116.7831 346° North 416 479 38,000  Level Seattle Center
Sat 05:19:16 PM 45.3864 -116.8225 346° North 415 478 38,000  Level Seattle Center
Sat 05:20:17 PM 45.4994 -116.8633 346° North 417 480 38,000  Level Seattle Center
Sat 05:21:18 PM 45.6117 -116.9017 347° North 416 479 38,000  Level Seattle Center
Sat 05:22:19 PM 45.7131 -116.9406 345° North 419 482 38,000 -298 Level Seattle Center
Sat 05:23:19 PM 45.8247 -116.9797 346° North 414 476 37,400 -1,686 Descending Seattle Center
Sat 05:24:20 PM 45.9364 -117.0192 346° North 412 474 34,600 -2,803 Descending Seattle Center
Sat 05:25:21 PM 46.0489 -117.0614 345° North 417 480 31,700 -2,876 Descending Seattle Center
Sat 05:26:21 PM 46.1786 -117.1092 346° North 398 458 28,800 -2,529 Descending Seattle Center
Sat 05:27:22 PM 46.2828 -117.1469 346° North 388 447 26,600 -2,164 Descending Seattle Center
Sat 05:28:23 PM 46.3814 -117.1833 346° North 367 422 24,400 -2,066 Descending Seattle Center
Sat 05:29:24 PM 46.4758 -117.2172 346° North 353 406 22,400 -1,983 Descending Seattle Center
Sat 05:30:24 PM 46.5667 -117.2506 346° North 338 389 20,400 -1,934 Descending Seattle Center
Sat 05:31:25 PM 46.6564 -117.2847 345° North 335 386 18,500 -1,820 Descending Seattle Center
Sat 05:32:26 PM 46.7478 -117.3194 345° North 340 391 16,700 -1,934 Descending Seattle Center
Sat 05:33:26 PM 46.8353 -117.3519 346° North 326 375 14,600 -1,835 Descending Seattle Center
Sat 05:34:27 PM 46.9211 -117.3836 346° North 317 365 13,000 -1,770 Descending Seattle Center
Sat 05:35:28 PM 47.0036 -117.4153 345° North 310 357 11,000 -1,488 Descending Seattle Center
Sat 05:36:28 PM 47.0867 -117.4464 346° North 307 353 10,000 -992 Descending Seattle Center
Sat 05:37:29 PM 47.1594 -117.4722 346° North 272 313 9,000 -984 Descending Seattle Center
Sat 05:38:30 PM 47.2303 -117.4972 347° North 263 303 8,000 -992 Descending Seattle Center
Sat 05:39:30 PM 47.3008 -117.5253 345° North 262 302 7,000 -1,041 Descending Seattle Center
Sat 05:40:31 PM 47.3678 -117.5517 345° North 251 289 5,900 -1,041 Descending Seattle Center
Sat 05:41:31 PM 47.4317 -117.5781 344° North 239 275 4,900 -893 Descending Seattle Center
Sat 05:42:32 PM 47.4939 -117.6031 345° North 233 268 4,100 -541 Descending Seattle Center
Sat 05:43:33 PM 47.5425 -117.6225 345° North 180 207 3,800 -295 Descending Seattle Center
Sat 05:44:34 PM 47.5733 -117.6050 21° North 133 153 3,500 -545 Descending Seattle Center
Sat 05:45:34 PM 47.5997 -117.5658 45° Northeast 133 153 2,700 -595 Descending Seattle Center
Sat 05:46:35 PM 47.6203 -117.5344 46° Northeast 112 129 2,300 -197 Descending Seattle Center
Sat 05:47:36 PM 47.6250 -117.5339 North 53 61 2,300  Level Seattle Center

Login

Don't have an account? Register now (free) for customized features, flight alerts, and more!